createdAt,value
2023-01-09T00:01:50.499Z,67.97
2023-01-09T00:04:19.950Z,68.64
2023-01-09T00:06:54.825Z,67.44
2023-01-09T00:09:24.904Z,67.30
2023-01-09T00:11:53.907Z,67.51
2023-01-09T00:14:23.970Z,67.50
2023-01-09T00:16:52.456Z,67.13
2023-01-09T00:19:20.844Z,67.91
2023-01-09T00:21:49.534Z,68.88
2023-01-09T00:24:17.926Z,70.14
2023-01-09T00:26:46.287Z,70.18
2023-01-09T00:29:14.724Z,70.85
2023-01-09T00:31:43.034Z,70.70
2023-01-09T00:34:11.611Z,72.89
2023-01-09T00:36:39.957Z,72.76
2023-01-09T00:39:08.308Z,72.67
2023-01-09T00:41:44.429Z,72.99
2023-01-09T00:44:31.153Z,70.16
2023-01-09T00:47:08.822Z,69.24
2023-01-09T00:49:39.037Z,70.07
2023-01-09T00:52:10.512Z,71.22
2023-01-09T00:54:40.514Z,71.25
2023-01-09T00:57:12.225Z,71.00
2023-01-09T00:59:42.237Z,71.52
2023-01-09T01:02:10.893Z,70.00
2023-01-09T01:04:57.638Z,69.36
2023-01-09T01:07:41.149Z,67.19
2023-01-09T01:10:23.997Z,66.28
2023-01-09T01:12:53.952Z,63.89
2023-01-09T01:15:23.055Z,65.25
2023-01-09T01:17:51.360Z,64.09
2023-01-09T01:20:20.273Z,63.58
2023-01-09T01:22:49.099Z,63.10
2023-01-09T01:25:18.478Z,63.25
2023-01-09T01:27:46.813Z,63.38
2023-01-09T01:30:16.919Z,64.16
2023-01-09T01:32:45.930Z,63.92
2023-01-09T01:35:14.720Z,64.23
2023-01-09T01:37:43.157Z,62.57
2023-01-09T01:40:12.466Z,61.64
2023-01-09T01:42:51.042Z,60.98
2023-01-09T01:45:22.125Z,60.65
2023-01-09T01:48:05.914Z,60.63
2023-01-09T01:50:47.711Z,60.63
2023-01-09T01:53:38.141Z,60.63
2023-01-09T01:56:21.843Z,60.51
2023-01-09T01:59:06.575Z,60.64
2023-01-09T02:01:37.339Z,60.45
2023-01-09T02:04:06.257Z,60.14
2023-01-09T02:06:36.170Z,59.97
2023-01-09T02:09:07.461Z,60.20
2023-01-09T02:11:36.220Z,60.34
2023-01-09T02:14:04.962Z,59.73
2023-01-09T02:16:57.183Z,59.96
2023-01-09T02:19:43.450Z,59.71
2023-01-09T02:22:37.507Z,58.78
2023-01-09T02:25:17.766Z,58.83
2023-01-09T02:28:04.721Z,59.06
2023-01-09T02:30:50.355Z,59.15
2023-01-09T02:33:39.786Z,58.29
2023-01-09T02:36:08.096Z,58.62
2023-01-09T02:38:54.537Z,58.57
2023-01-09T02:41:30.377Z,58.37
2023-01-09T02:44:17.968Z,58.81
2023-01-09T02:46:46.477Z,58.49
2023-01-09T02:49:18.044Z,56.72
2023-01-09T02:51:48.919Z,57.30
2023-01-09T02:54:49.258Z,57.65
2023-01-09T02:57:41.662Z,57.82
2023-01-09T03:00:22.078Z,57.47
2023-01-09T03:03:32.760Z,58.47
2023-01-09T03:06:12.996Z,56.95
2023-01-09T03:09:01.651Z,57.22
2023-01-09T03:11:36.732Z,56.89
2023-01-09T03:14:12.814Z,56.57
2023-01-09T03:16:41.167Z,56.23
2023-01-09T03:19:14.936Z,56.09
2023-01-09T03:21:43.961Z,56.54
2023-01-09T03:24:12.297Z,55.10
2023-01-09T03:26:41.281Z,56.46
2023-01-09T03:29:10.921Z,55.35
2023-01-09T03:31:39.332Z,56.11
2023-01-09T03:34:07.740Z,55.88
2023-01-09T03:36:36.019Z,55.40
2023-01-09T03:39:04.389Z,55.29
2023-01-09T03:41:32.685Z,55.74
2023-01-09T03:44:00.945Z,54.87
2023-01-09T03:46:31.318Z,55.94
2023-01-09T03:48:59.879Z,55.49
2023-01-09T03:51:28.405Z,55.28
2023-01-09T03:53:56.782Z,56.63
2023-01-09T03:56:26.474Z,57.49
2023-01-09T03:58:54.759Z,56.04
2023-01-09T04:01:23.187Z,56.33
2023-01-09T04:03:51.584Z,55.89
2023-01-09T04:06:19.883Z,55.81
2023-01-09T04:08:48.224Z,54.01
2023-01-09T04:11:18.900Z,54.84
2023-01-09T04:13:47.211Z,54.19
2023-01-09T04:16:15.569Z,54.81
2023-01-09T04:18:43.914Z,54.69
2023-01-09T04:21:12.236Z,54.19
2023-01-09T04:23:40.634Z,55.29
2023-01-09T04:26:09.085Z,54.73
2023-01-09T04:28:37.408Z,55.49
2023-01-09T04:31:06.192Z,54.06
2023-01-09T04:33:34.502Z,54.30
2023-01-09T04:36:02.787Z,54.18
2023-01-09T04:38:31.286Z,53.67
2023-01-09T04:40:59.659Z,53.17
2023-01-09T04:43:27.940Z,53.38
2023-01-09T04:45:56.342Z,53.33
2023-01-09T04:48:24.737Z,53.21
2023-01-09T04:50:53.068Z,52.31
2023-01-09T04:53:21.432Z,53.16
2023-01-09T04:55:49.696Z,53.92
2023-01-09T04:58:17.974Z,54.06
2023-01-09T05:00:46.361Z,53.11
2023-01-09T05:03:14.644Z,52.71
2023-01-09T05:05:42.918Z,52.90
2023-01-09T05:08:11.242Z,52.74
2023-01-09T05:10:39.518Z,52.77
2023-01-09T05:13:07.787Z,52.76
2023-01-09T05:15:36.063Z,52.04
2023-01-09T05:18:04.395Z,52.15
2023-01-09T05:20:32.689Z,53.97
2023-01-09T05:23:01.007Z,52.94
2023-01-09T05:25:29.323Z,53.34
2023-01-09T05:27:57.712Z,52.12
2023-01-09T05:30:26.005Z,51.90
2023-01-09T05:32:54.359Z,52.85
2023-01-09T05:35:23.793Z,52.60
2023-01-09T05:37:52.246Z,52.90
2023-01-09T05:40:20.812Z,52.93
2023-01-09T05:42:49.131Z,51.98
2023-01-09T05:45:17.490Z,52.39
2023-01-09T05:47:47.011Z,51.77
2023-01-09T05:50:16.298Z,51.92
2023-01-09T05:52:44.699Z,52.56
2023-01-09T05:55:14.314Z,52.38
2023-01-09T05:57:42.886Z,52.19
2023-01-09T06:00:11.851Z,53.49
2023-01-09T06:02:40.238Z,52.66
2023-01-09T06:05:09.506Z,52.32
2023-01-09T06:07:40.892Z,51.48
2023-01-09T06:10:12.042Z,51.97
2023-01-09T06:12:40.553Z,51.79
2023-01-09T06:15:09.666Z,52.60
2023-01-09T06:17:37.953Z,53.08
2023-01-09T06:20:06.794Z,52.69
2023-01-09T06:22:35.391Z,51.50
2023-01-09T06:25:04.055Z,51.17
2023-01-09T06:27:32.526Z,51.42
2023-01-09T06:30:00.832Z,50.75
2023-01-09T06:32:29.103Z,51.23
2023-01-09T06:34:57.426Z,50.39
2023-01-09T06:37:25.739Z,51.27
2023-01-09T06:39:55.131Z,52.01
2023-01-09T06:42:23.524Z,51.41
2023-01-09T06:44:52.057Z,53.04
2023-01-09T06:47:20.343Z,52.51
2023-01-09T06:49:48.657Z,51.24
2023-01-09T06:52:16.929Z,52.59
2023-01-09T06:54:45.259Z,51.99
2023-01-09T06:57:16.101Z,51.55
2023-01-09T06:59:44.398Z,50.56
2023-01-09T07:02:20.322Z,50.64
2023-01-09T07:04:49.024Z,51.25
2023-01-09T07:07:17.569Z,50.76
2023-01-09T07:09:45.856Z,51.07
2023-01-09T07:12:15.746Z,51.27
2023-01-09T07:14:44.278Z,50.89
2023-01-09T07:17:15.551Z,50.22
2023-01-09T07:19:43.846Z,49.83
2023-01-09T07:22:12.331Z,50.50
2023-01-09T07:24:40.692Z,51.68
2023-01-09T07:27:09.049Z,51.19
2023-01-09T07:29:37.412Z,50.79
2023-01-09T07:32:06.255Z,51.16
2023-01-09T07:34:34.645Z,50.79
2023-01-09T07:37:02.965Z,52.42
2023-01-09T07:39:31.289Z,51.09
2023-01-09T07:41:59.595Z,51.40
2023-01-09T07:44:27.959Z,50.66
2023-01-09T07:46:56.241Z,50.02
2023-01-09T07:49:26.709Z,50.98
2023-01-09T07:51:56.385Z,51.73
2023-01-09T07:54:24.906Z,49.81
2023-01-09T07:56:53.259Z,50.84
2023-01-09T07:59:25.031Z,50.36
2023-01-09T08:01:53.370Z,50.52
2023-01-09T08:04:21.723Z,50.69
2023-01-09T08:06:50.021Z,52.44
2023-01-09T08:09:18.391Z,54.31
2023-01-09T08:11:46.660Z,52.18
2023-01-09T08:14:15.059Z,52.96
2023-01-09T08:16:43.634Z,50.83
2023-01-09T08:19:13.067Z,49.67
2023-01-09T08:21:41.531Z,50.46
2023-01-09T08:24:10.955Z,52.35
2023-01-09T08:26:39.414Z,51.30
2023-01-09T08:29:07.852Z,51.25
2023-01-09T08:31:37.117Z,51.91
2023-01-09T08:34:06.250Z,51.59
2023-01-09T08:36:35.366Z,50.46
2023-01-09T08:39:04.380Z,50.66
2023-01-09T08:41:51.974Z,52.69
2023-01-09T08:44:39.434Z,52.29
2023-01-09T08:47:08.480Z,50.72
2023-01-09T08:49:39.691Z,51.18
2023-01-09T08:52:09.426Z,52.04
2023-01-09T08:54:41.501Z,51.60
2023-01-09T08:57:10.667Z,51.40
2023-01-09T08:59:39.529Z,50.89
2023-01-09T09:02:08.734Z,50.51
2023-01-09T09:04:37.587Z,51.02
2023-01-09T09:07:05.967Z,52.55
2023-01-09T09:09:34.309Z,51.76
2023-01-09T09:12:02.600Z,52.11
2023-01-09T09:14:49.371Z,51.28
2023-01-09T09:17:17.702Z,51.78
2023-01-09T09:19:45.965Z,51.83
2023-01-09T09:22:14.263Z,52.12
2023-01-09T09:24:42.596Z,52.31
2023-01-09T09:27:10.944Z,52.83
2023-01-09T09:29:39.333Z,52.37
2023-01-09T09:32:07.617Z,55.59
2023-01-09T09:34:36.172Z,55.05
2023-01-09T09:37:04.603Z,52.16
2023-01-09T09:39:33.292Z,52.66
2023-01-09T09:42:31.811Z,53.66
2023-01-09T09:45:18.344Z,54.49
2023-01-09T09:48:01.720Z,55.71
2023-01-09T09:50:35.981Z,56.61
2023-01-09T09:53:39.976Z,57.01
2023-01-09T09:56:13.804Z,56.53
2023-01-09T09:59:04.565Z,55.90
2023-01-09T10:01:44.329Z,55.33
2023-01-09T10:04:18.316Z,56.33
2023-01-09T10:06:50.961Z,57.89
2023-01-09T10:09:27.724Z,57.73
2023-01-09T10:12:07.029Z,57.30
2023-01-09T10:14:35.575Z,56.68
2023-01-09T10:17:31.574Z,57.16
2023-01-09T10:20:56.051Z,58.09
2023-01-09T10:23:24.272Z,59.86
2023-01-09T10:26:05.599Z,59.65
2023-01-09T10:29:05.614Z,60.06
2023-01-09T10:31:48.959Z,60.51
2023-01-09T10:34:55.788Z,59.91
2023-01-09T10:37:31.056Z,60.25
2023-01-09T10:40:20.446Z,59.51
2023-01-09T10:43:03.827Z,59.69
2023-01-09T10:45:41.664Z,59.06
2023-01-09T10:48:42.565Z,60.61
2023-01-09T10:51:23.674Z,61.60
2023-01-09T10:53:55.227Z,62.64
2023-01-09T10:56:35.090Z,62.03
2023-01-09T10:59:03.693Z,61.86
2023-01-09T11:01:39.236Z,60.88
2023-01-09T11:04:25.890Z,60.87
2023-01-09T11:07:23.248Z,61.92
2023-01-09T11:10:15.195Z,61.38
2023-01-09T11:12:44.117Z,59.41
2023-01-09T11:15:21.410Z,59.23
2023-01-09T11:17:53.207Z,58.65
2023-01-09T11:20:24.517Z,59.23
2023-01-09T11:22:58.662Z,59.77
2023-01-09T11:25:29.522Z,59.87
2023-01-09T11:28:09.154Z,58.77
2023-01-09T11:30:52.051Z,59.85
2023-01-09T11:33:26.974Z,59.93
2023-01-09T11:36:16.993Z,60.22
2023-01-09T11:38:55.650Z,60.54
2023-01-09T11:41:31.031Z,61.01
2023-01-09T11:44:01.594Z,61.39
2023-01-09T11:46:41.805Z,61.91
2023-01-09T11:49:16.273Z,62.39
2023-01-09T11:51:45.828Z,63.58
2023-01-09T11:54:26.299Z,64.80
2023-01-09T11:56:54.790Z,63.60
2023-01-09T11:59:28.430Z,62.91
2023-01-09T12:02:11.738Z,63.44
2023-01-09T12:05:04.589Z,62.70
2023-01-09T12:07:59.250Z,63.70
2023-01-09T12:10:48.619Z,63.87
2023-01-09T12:13:31.747Z,62.37
2023-01-09T12:16:11.924Z,63.21
2023-01-09T12:18:57.792Z,63.04
2023-01-09T12:21:34.727Z,64.43
2023-01-09T12:24:21.205Z,62.74
2023-01-09T12:27:17.474Z,63.86
2023-01-09T12:30:20.824Z,63.43
2023-01-09T12:33:03.286Z,63.30
2023-01-09T12:35:42.276Z,63.00
2023-01-09T12:38:16.696Z,63.47
2023-01-09T12:41:08.354Z,62.56
2023-01-09T12:43:39.639Z,62.94
2023-01-09T12:46:25.597Z,64.47
2023-01-09T12:49:18.618Z,64.05
2023-01-09T12:52:05.181Z,63.69
2023-01-09T12:54:59.345Z,63.76
2023-01-09T12:57:47.551Z,64.12
2023-01-09T13:00:33.491Z,63.63
2023-01-09T13:03:19.547Z,64.17
2023-01-09T13:05:50.329Z,65.15
2023-01-09T13:08:41.654Z,64.07
2023-01-09T13:11:19.956Z,65.36
2023-01-09T13:13:59.408Z,66.67
2023-01-09T13:16:38.140Z,67.02
2023-01-09T13:19:22.345Z,67.83
2023-01-09T13:21:51.681Z,67.23
2023-01-09T13:24:56.617Z,68.29
2023-01-09T13:27:28.065Z,68.85
2023-01-09T13:30:17.669Z,69.07
2023-01-09T13:33:21.184Z,69.28
2023-01-09T13:35:58.604Z,69.61
2023-01-09T13:38:32.396Z,69.62
2023-01-09T13:41:30.803Z,69.60
2023-01-09T13:44:18.966Z,70.06
2023-01-09T13:46:52.812Z,69.83
2023-01-09T13:49:54.198Z,69.43
2023-01-09T13:52:48.956Z,69.97
2023-01-09T13:55:29.855Z,70.84
2023-01-09T13:58:07.390Z,70.68
2023-01-09T14:00:48.672Z,71.04
2023-01-09T14:04:06.239Z,70.91
2023-01-09T14:06:34.593Z,70.98
2023-01-09T14:09:24.296Z,70.62
2023-01-09T14:12:05.766Z,70.56
2023-01-09T14:14:36.147Z,70.51
2023-01-09T14:17:18.764Z,70.55
2023-01-09T14:19:47.403Z,71.61
2023-01-09T14:22:45.607Z,71.30
2023-01-09T14:25:27.805Z,71.83
2023-01-09T14:27:56.060Z,71.98
2023-01-09T14:30:32.238Z,72.33
2023-01-09T14:33:29.311Z,71.81
2023-01-09T14:36:11.016Z,71.35
2023-01-09T14:38:43.388Z,72.19
2023-01-09T14:41:58.498Z,72.11
2023-01-09T14:44:48.363Z,71.52
2023-01-09T14:47:19.361Z,72.15
2023-01-09T14:49:59.730Z,71.25
2023-01-09T14:52:30.423Z,72.12
2023-01-09T14:55:02.548Z,72.76
2023-01-09T14:57:35.875Z,72.76
2023-01-09T15:00:17.855Z,71.98
2023-01-09T15:02:48.497Z,72.23
2023-01-09T15:05:22.204Z,71.73
2023-01-09T15:08:03.765Z,72.19
2023-01-09T15:10:39.273Z,72.26
2023-01-09T15:13:15.064Z,72.69
2023-01-09T15:15:51.194Z,72.49
2023-01-09T15:18:25.312Z,73.47
2023-01-09T15:20:59.289Z,73.11
2023-01-09T15:23:32.388Z,73.45
2023-01-09T15:26:26.273Z,73.50
2023-01-09T15:29:02.686Z,73.64
2023-01-09T15:31:31.153Z,74.69
2023-01-09T15:33:59.564Z,75.13
2023-01-09T15:36:31.776Z,74.85
2023-01-09T15:39:00.994Z,74.92
2023-01-09T15:41:49.569Z,75.23
2023-01-09T15:44:26.838Z,74.48
2023-01-09T15:47:00.696Z,75.03
2023-01-09T15:49:29.318Z,76.12
2023-01-09T15:51:57.965Z,75.16
2023-01-09T15:54:32.168Z,75.89
2023-01-09T15:57:28.340Z,75.46
2023-01-09T15:59:58.487Z,75.76
2023-01-09T16:02:46.123Z,75.66
2023-01-09T16:05:19.153Z,75.48
2023-01-09T16:07:51.918Z,75.39
2023-01-09T16:10:27.778Z,75.22
2023-01-09T16:12:56.315Z,75.43
2023-01-09T16:15:24.673Z,75.96
2023-01-09T16:18:21.552Z,75.43
2023-01-09T16:20:50.668Z,75.46
2023-01-09T16:23:21.985Z,76.03
2023-01-09T16:25:50.888Z,76.53
2023-01-09T16:28:31.610Z,75.59
2023-01-09T16:31:01.759Z,75.88
2023-01-09T16:33:32.731Z,75.96
2023-01-09T16:36:01.778Z,76.43
2023-01-09T16:38:30.325Z,76.40
2023-01-09T16:41:20.416Z,76.90
2023-01-09T16:43:48.859Z,77.10
2023-01-09T16:46:20.245Z,77.24
2023-01-09T16:48:49.612Z,77.45
2023-01-09T16:51:23.212Z,77.73
2023-01-09T16:53:51.740Z,78.03
2023-01-09T16:56:27.494Z,77.69
2023-01-09T16:58:55.907Z,77.74
2023-01-09T17:01:24.624Z,77.38
2023-01-09T17:03:53.606Z,77.32
2023-01-09T17:06:30.780Z,77.51
2023-01-09T17:08:59.398Z,78.07
2023-01-09T17:11:34.106Z,78.00
2023-01-09T17:14:03.381Z,78.39
2023-01-09T17:16:31.875Z,78.36
2023-01-09T17:19:00.239Z,76.41
2023-01-09T17:21:30.424Z,76.88
2023-01-09T17:24:20.087Z,77.27
2023-01-09T17:27:10.250Z,77.37
2023-01-09T17:29:38.655Z,77.04
2023-01-09T17:32:07.170Z,77.35
2023-01-09T17:34:35.789Z,77.54
2023-01-09T17:37:04.728Z,77.31
2023-01-09T17:39:33.188Z,76.22
2023-01-09T17:42:02.792Z,75.74
2023-01-09T17:44:31.105Z,74.39
2023-01-09T17:46:59.410Z,72.66
2023-01-09T17:49:28.421Z,73.76
2023-01-09T17:51:56.944Z,74.49
2023-01-09T17:54:25.244Z,75.79
2023-01-09T17:56:54.776Z,75.95
2023-01-09T17:59:23.141Z,75.87
2023-01-09T18:01:51.453Z,74.98
2023-01-09T18:04:19.741Z,75.78
2023-01-09T18:06:49.214Z,76.00
2023-01-09T18:09:18.983Z,76.35
2023-01-09T18:11:49.202Z,76.53
2023-01-09T18:14:18.522Z,76.32
2023-01-09T18:19:14.924Z,76.90
2023-01-09T18:21:43.211Z,77.42
2023-01-09T18:24:11.553Z,77.52
2023-01-09T18:26:39.930Z,77.26
2023-01-09T18:29:08.306Z,77.56
2023-01-09T18:31:36.680Z,77.37
2023-01-09T18:34:06.437Z,77.89
2023-01-09T18:36:34.908Z,78.02
2023-01-09T18:39:06.439Z,77.73
2023-01-09T18:41:34.771Z,77.94
2023-01-09T18:44:03.577Z,77.77
2023-01-09T18:46:33.038Z,77.92
2023-01-09T18:49:03.789Z,77.40
2023-01-09T18:51:34.508Z,77.65
2023-01-09T18:54:02.842Z,78.13
2023-01-09T18:56:31.251Z,78.27
2023-01-09T18:59:00.040Z,79.17
2023-01-09T19:01:30.639Z,78.90
2023-01-09T19:04:01.104Z,78.74
2023-01-09T19:06:31.058Z,80.06
2023-01-09T19:09:02.371Z,79.64
2023-01-09T19:11:32.164Z,80.18
2023-01-09T19:14:00.517Z,80.19
2023-01-09T19:16:28.935Z,80.24
2023-01-09T19:18:59.123Z,79.68
2023-01-09T19:21:27.857Z,79.85
2023-01-09T19:23:56.770Z,79.98
2023-01-09T19:26:27.659Z,79.59
2023-01-09T19:28:58.339Z,79.92
2023-01-09T19:31:29.308Z,79.63
2023-01-09T19:33:58.963Z,79.93
2023-01-09T19:36:28.616Z,80.55
2023-01-09T19:39:01.374Z,80.04
2023-01-09T19:41:30.587Z,80.55
2023-01-09T19:44:01.034Z,80.50
2023-01-09T19:46:31.343Z,80.51
2023-01-09T19:48:59.909Z,80.93
2023-01-09T19:51:28.866Z,81.24
2023-01-09T19:56:29.881Z,80.44
2023-01-09T19:59:04.096Z,80.61
2023-01-09T20:01:39.687Z,80.77
2023-01-09T20:04:14.738Z,81.23
2023-01-09T20:06:48.235Z,81.12
2023-01-09T20:09:23.139Z,80.79
2023-01-09T20:11:51.457Z,81.39
2023-01-09T20:14:20.783Z,81.08
2023-01-09T20:16:49.593Z,81.77
2023-01-09T20:19:18.400Z,82.20
2023-01-09T20:21:47.107Z,82.50
2023-01-09T20:24:17.744Z,82.71
2023-01-09T20:26:47.267Z,82.18
2023-01-09T20:29:15.656Z,82.45
2023-01-09T20:31:44.271Z,82.14
2023-01-09T20:34:16.290Z,81.89
2023-01-09T20:36:45.020Z,82.31
2023-01-09T20:39:13.705Z,82.80
2023-01-09T20:41:42.241Z,82.65
2023-01-09T20:44:15.492Z,83.67
2023-01-09T20:46:48.782Z,83.34
2023-01-09T20:49:21.750Z,83.32
2023-01-09T20:51:54.086Z,82.96
2023-01-09T20:54:23.040Z,83.23
2023-01-09T20:56:51.794Z,83.14
2023-01-09T20:59:23.998Z,83.24
2023-01-09T21:01:52.494Z,83.32
2023-01-09T21:04:20.921Z,83.21
2023-01-09T21:06:50.185Z,83.30
2023-01-09T21:09:19.971Z,83.48
2023-01-09T21:11:48.269Z,83.08
2023-01-09T21:14:16.574Z,83.09
2023-01-09T21:16:53.732Z,83.16
2023-01-09T21:19:23.239Z,83.17
2023-01-09T21:21:53.249Z,83.17
2023-01-09T21:24:21.920Z,83.08
2023-01-09T21:26:50.195Z,83.05
2023-01-09T21:29:18.597Z,83.30
2023-01-09T21:31:47.145Z,83.48
2023-01-09T21:34:18.315Z,83.49
2023-01-09T21:36:49.566Z,83.17
2023-01-09T21:39:20.234Z,82.83
2023-01-09T21:42:06.833Z,82.37
2023-01-09T21:44:53.331Z,81.94
2023-01-09T21:47:21.998Z,82.05
2023-01-09T21:49:50.475Z,82.31
2023-01-09T21:52:19.417Z,82.07
2023-01-09T21:54:47.755Z,82.08
2023-01-09T21:57:16.688Z,82.15
2023-01-09T21:59:45.835Z,81.92
2023-01-09T22:02:16.646Z,82.13
2023-01-09T22:04:49.717Z,81.80
2023-01-09T22:07:18.275Z,81.82
2023-01-09T22:09:46.872Z,82.05
2023-01-09T22:12:15.197Z,81.33
2023-01-09T22:14:43.530Z,81.37
2023-01-09T22:17:11.827Z,81.76
2023-01-09T22:19:40.130Z,81.18
2023-01-09T22:22:09.429Z,80.97
2023-01-09T22:24:37.835Z,81.12
2023-01-09T22:27:06.234Z,80.80
2023-01-09T22:29:35.046Z,81.51
2023-01-09T22:32:03.781Z,81.59
2023-01-09T22:34:32.217Z,81.55
2023-01-09T22:37:00.853Z,81.16
2023-01-09T22:39:29.357Z,81.02
2023-01-09T22:41:57.752Z,80.93
2023-01-09T22:44:26.062Z,81.14
2023-01-09T22:46:54.369Z,81.14
2023-01-09T22:49:22.655Z,81.14
2023-01-09T22:51:50.960Z,81.28
2023-01-09T22:54:20.323Z,81.23
2023-01-09T22:56:51.717Z,81.77
2023-01-09T22:59:20.017Z,81.82
2023-01-09T23:01:48.318Z,82.35
2023-01-09T23:04:17.572Z,81.66
2023-01-09T23:06:45.879Z,81.43
2023-01-09T23:09:14.173Z,81.64
2023-01-09T23:12:00.950Z,81.40
2023-01-09T23:14:29.984Z,81.50
2023-01-09T23:16:58.525Z,80.85
2023-01-09T23:19:27.242Z,81.02
2023-01-09T23:21:55.655Z,81.14
2023-01-09T23:24:24.143Z,80.96
2023-01-09T23:26:53.146Z,80.98
2023-01-09T23:29:21.938Z,81.47
2023-01-09T23:31:50.356Z,82.06
2023-01-09T23:34:21.014Z,82.50
2023-01-09T23:36:49.557Z,82.76
2023-01-09T23:39:18.504Z,82.62
2023-01-09T23:42:05.004Z,82.50
2023-01-09T23:44:34.021Z,83.06
2023-01-09T23:47:02.298Z,83.39
2023-01-09T23:49:30.713Z,82.76
2023-01-09T23:51:59.144Z,83.13
2023-01-09T23:54:27.469Z,83.47
2023-01-09T23:56:57.380Z,82.91
2023-01-09T23:59:25.928Z,83.32
